sensor_id;sensor_type;location;lat;lon;timestamp;P1;durP1;ratioP1;P2;durP2;ratioP2
1837;SDS011;918;50.796;6.772;2022-12-01T00:01:05;17.27;;;15.47;;
1837;SDS011;918;50.796;6.772;2022-12-01T00:03:31;18.50;;;14.97;;
1837;SDS011;918;50.796;6.772;2022-12-01T00:06:00;17.07;;;15.23;;
1837;SDS011;918;50.796;6.772;2022-12-01T00:08:27;18.63;;;15.47;;
1837;SDS011;918;50.796;6.772;2022-12-01T00:10:53;19.47;;;15.60;;
1837;SDS011;918;50.796;6.772;2022-12-01T00:13:18;16.77;;;14.27;;
1837;SDS011;918;50.796;6.772;2022-12-01T00:15:43;17.17;;;15.37;;
1837;SDS011;918;50.796;6.772;2022-12-01T00:18:08;17.80;;;15.40;;
1837;SDS011;918;50.796;6.772;2022-12-01T00:20:34;16.23;;;14.53;;
1837;SDS011;918;50.796;6.772;2022-12-01T00:23:00;18.77;;;15.00;;
1837;SDS011;918;50.796;6.772;2022-12-01T00:25:25;16.23;;;14.47;;
1837;SDS011;918;50.796;6.772;2022-12-01T00:27:51;15.50;;;13.90;;
1837;SDS011;918;50.796;6.772;2022-12-01T00:30:18;16.13;;;13.70;;
1837;SDS011;918;50.796;6.772;2022-12-01T00:32:44;14.87;;;12.63;;
1837;SDS011;918;50.796;6.772;2022-12-01T00:35:09;14.63;;;13.23;;
1837;SDS011;918;50.796;6.772;2022-12-01T00:37:35;16.63;;;13.67;;
1837;SDS011;918;50.796;6.772;2022-12-01T00:40:01;14.77;;;12.67;;
1837;SDS011;918;50.796;6.772;2022-12-01T00:42:27;16.67;;;14.10;;
1837;SDS011;918;50.796;6.772;2022-12-01T00:44:53;16.90;;;13.23;;
1837;SDS011;918;50.796;6.772;2022-12-01T00:47:18;15.13;;;12.00;;
1837;SDS011;918;50.796;6.772;2022-12-01T00:49:43;13.50;;;12.07;;
1837;SDS011;918;50.796;6.772;2022-12-01T00:52:12;16.30;;;13.07;;
1837;SDS011;918;50.796;6.772;2022-12-01T00:54:38;16.77;;;13.17;;
1837;SDS011;918;50.796;6.772;2022-12-01T00:57:03;14.53;;;13.10;;
1837;SDS011;918;50.796;6.772;2022-12-01T00:59:29;15.43;;;13.83;;
1837;SDS011;918;50.796;6.772;2022-12-01T01:01:54;14.50;;;12.70;;
1837;SDS011;918;50.796;6.772;2022-12-01T01:04:19;14.83;;;13.33;;
1837;SDS011;918;50.796;6.772;2022-12-01T01:06:45;16.10;;;13.00;;
1837;SDS011;918;50.796;6.772;2022-12-01T01:09:10;15.43;;;13.77;;
1837;SDS011;918;50.796;6.772;2022-12-01T01:11:36;16.20;;;13.30;;
1837;SDS011;918;50.796;6.772;2022-12-01T01:14:02;17.23;;;14.10;;
1837;SDS011;918;50.796;6.772;2022-12-01T01:16:28;16.13;;;13.20;;
1837;SDS011;918;50.796;6.772;2022-12-01T01:18:53;16.17;;;13.20;;
1837;SDS011;918;50.796;6.772;2022-12-01T01:21:20;16.67;;;13.80;;
1837;SDS011;918;50.796;6.772;2022-12-01T01:23:46;15.30;;;13.13;;
1837;SDS011;918;50.796;6.772;2022-12-01T01:26:16;15.37;;;13.77;;
1837;SDS011;918;50.796;6.772;2022-12-01T01:28:45;18.10;;;13.67;;
1837;SDS011;918;50.796;6.772;2022-12-01T01:31:13;14.70;;;13.10;;
1837;SDS011;918;50.796;6.772;2022-12-01T01:33:40;17.90;;;13.20;;
1837;SDS011;918;50.796;6.772;2022-12-01T01:36:05;14.30;;;11.73;;
1837;SDS011;918;50.796;6.772;2022-12-01T01:38:31;13.83;;;12.47;;
1837;SDS011;918;50.796;6.772;2022-12-01T01:40:57;15.07;;;12.90;;
1837;SDS011;918;50.796;6.772;2022-12-01T01:46:09;14.00;;;12.40;;
1837;SDS011;918;50.796;6.772;2022-12-01T01:48:36;16.07;;;12.30;;
1837;SDS011;918;50.796;6.772;2022-12-01T01:51:02;15.63;;;12.37;;
1837;SDS011;918;50.796;6.772;2022-12-01T01:53:28;15.23;;;10.83;;
1837;SDS011;918;50.796;6.772;2022-12-01T01:55:53;13.10;;;11.30;;
1837;SDS011;918;50.796;6.772;2022-12-01T01:58:18;13.03;;;11.70;;
1837;SDS011;918;50.796;6.772;2022-12-01T02:00:44;15.03;;;12.83;;
1837;SDS011;918;50.796;6.772;2022-12-01T02:03:11;16.10;;;12.57;;
1837;SDS011;918;50.796;6.772;2022-12-01T02:05:37;17.40;;;13.17;;
1837;SDS011;918;50.796;6.772;2022-12-01T02:08:03;16.33;;;13.97;;
1837;SDS011;918;50.796;6.772;2022-12-01T02:15:55;15.10;;;13.57;;
1837;SDS011;918;50.796;6.772;2022-12-01T02:26:52;18.93;;;15.70;;
1837;SDS011;918;50.796;6.772;2022-12-01T02:42:56;18.03;;;13.87;;
1837;SDS011;918;50.796;6.772;2022-12-01T02:45:38;19.30;;;16.03;;
1837;SDS011;918;50.796;6.772;2022-12-01T02:48:10;22.63;;;16.00;;
1837;SDS011;918;50.796;6.772;2022-12-01T02:50:39;21.07;;;17.23;;
1837;SDS011;918;50.796;6.772;2022-12-01T02:53:04;23.63;;;18.53;;
1837;SDS011;918;50.796;6.772;2022-12-01T02:55:30;22.93;;;17.73;;
1837;SDS011;918;50.796;6.772;2022-12-01T02:57:56;24.57;;;16.57;;
1837;SDS011;918;50.796;6.772;2022-12-01T03:00:21;23.20;;;17.37;;
1837;SDS011;918;50.796;6.772;2022-12-01T03:02:59;24.23;;;17.80;;
1837;SDS011;918;50.796;6.772;2022-12-01T03:05:31;21.87;;;17.50;;
1837;SDS011;918;50.796;6.772;2022-12-01T03:08:11;23.53;;;18.13;;
1837;SDS011;918;50.796;6.772;2022-12-01T03:10:47;23.57;;;17.97;;
1837;SDS011;918;50.796;6.772;2022-12-01T03:18:42;28.27;;;18.80;;
1837;SDS011;918;50.796;6.772;2022-12-01T03:23:40;31.73;;;20.27;;
1837;SDS011;918;50.796;6.772;2022-12-01T03:26:08;28.17;;;19.00;;
1837;SDS011;918;50.796;6.772;2022-12-01T03:28:38;28.07;;;21.20;;
1837;SDS011;918;50.796;6.772;2022-12-01T03:31:17;32.23;;;20.40;;
1837;SDS011;918;50.796;6.772;2022-12-01T03:33:53;32.43;;;21.83;;
1837;SDS011;918;50.796;6.772;2022-12-01T03:36:24;29.30;;;21.30;;
1837;SDS011;918;50.796;6.772;2022-12-01T03:38:54;26.17;;;19.67;;
1837;SDS011;918;50.796;6.772;2022-12-01T03:41:24;29.93;;;20.50;;
1837;SDS011;918;50.796;6.772;2022-12-01T03:43:54;29.60;;;21.90;;
1837;SDS011;918;50.796;6.772;2022-12-01T03:46:40;30.67;;;21.47;;
1837;SDS011;918;50.796;6.772;2022-12-01T03:49:10;28.57;;;20.70;;
1837;SDS011;918;50.796;6.772;2022-12-01T04:00:33;23.80;;;18.70;;
1837;SDS011;918;50.796;6.772;2022-12-01T04:02:59;27.63;;;19.70;;
1837;SDS011;918;50.796;6.772;2022-12-01T04:05:29;26.47;;;18.60;;
1837;SDS011;918;50.796;6.772;2022-12-01T04:07:56;27.63;;;19.40;;
1837;SDS011;918;50.796;6.772;2022-12-01T04:10:22;27.73;;;19.73;;
1837;SDS011;918;50.796;6.772;2022-12-01T04:12:47;28.40;;;19.97;;
1837;SDS011;918;50.796;6.772;2022-12-01T04:15:13;27.17;;;19.63;;
1837;SDS011;918;50.796;6.772;2022-12-01T04:17:39;25.37;;;18.73;;
1837;SDS011;918;50.796;6.772;2022-12-01T04:20:07;24.33;;;18.13;;
1837;SDS011;918;50.796;6.772;2022-12-01T04:22:34;25.87;;;18.33;;
1837;SDS011;918;50.796;6.772;2022-12-01T04:25:00;28.10;;;21.00;;
1837;SDS011;918;50.796;6.772;2022-12-01T04:27:25;31.10;;;19.83;;
1837;SDS011;918;50.796;6.772;2022-12-01T04:29:50;23.87;;;18.43;;
1837;SDS011;918;50.796;6.772;2022-12-01T04:32:15;25.73;;;19.23;;
1837;SDS011;918;50.796;6.772;2022-12-01T04:34:41;29.37;;;21.13;;
1837;SDS011;918;50.796;6.772;2022-12-01T04:37:06;30.53;;;21.20;;
1837;SDS011;918;50.796;6.772;2022-12-01T04:39:33;26.37;;;19.20;;
1837;SDS011;918;50.796;6.772;2022-12-01T04:41:59;28.50;;;21.50;;
1837;SDS011;918;50.796;6.772;2022-12-01T04:44:25;26.20;;;19.10;;
1837;SDS011;918;50.796;6.772;2022-12-01T04:46:50;31.97;;;18.97;;
1837;SDS011;918;50.796;6.772;2022-12-01T04:49:16;29.13;;;20.50;;
1837;SDS011;918;50.796;6.772;2022-12-01T04:51:42;27.53;;;20.47;;
1837;SDS011;918;50.796;6.772;2022-12-01T04:54:07;28.23;;;19.90;;
1837;SDS011;918;50.796;6.772;2022-12-01T04:56:33;30.63;;;20.30;;
1837;SDS011;918;50.796;6.772;2022-12-01T04:58:58;33.50;;;23.10;;
1837;SDS011;918;50.796;6.772;2022-12-01T05:01:24;25.43;;;18.60;;
1837;SDS011;918;50.796;6.772;2022-12-01T05:03:49;30.90;;;19.33;;
1837;SDS011;918;50.796;6.772;2022-12-01T05:06:19;34.50;;;22.40;;
1837;SDS011;918;50.796;6.772;2022-12-01T05:08:48;34.00;;;21.07;;
1837;SDS011;918;50.796;6.772;2022-12-01T05:11:14;36.43;;;21.67;;
1837;SDS011;918;50.796;6.772;2022-12-01T05:13:42;34.60;;;23.03;;
1837;SDS011;918;50.796;6.772;2022-12-01T05:16:19;36.20;;;22.60;;
1837;SDS011;918;50.796;6.772;2022-12-01T05:18:56;37.93;;;24.30;;
1837;SDS011;918;50.796;6.772;2022-12-01T05:21:41;40.03;;;22.67;;
1837;SDS011;918;50.796;6.772;2022-12-01T05:24:07;33.93;;;22.13;;
1837;SDS011;918;50.796;6.772;2022-12-01T05:26:33;37.40;;;23.97;;
1837;SDS011;918;50.796;6.772;2022-12-01T05:28:59;37.53;;;24.33;;
1837;SDS011;918;50.796;6.772;2022-12-01T05:31:24;35.77;;;23.67;;
1837;SDS011;918;50.796;6.772;2022-12-01T05:33:49;35.50;;;24.80;;
1837;SDS011;918;50.796;6.772;2022-12-01T05:36:15;36.83;;;23.93;;
1837;SDS011;918;50.796;6.772;2022-12-01T05:38:40;33.13;;;24.10;;
1837;SDS011;918;50.796;6.772;2022-12-01T05:41:05;36.77;;;24.47;;
1837;SDS011;918;50.796;6.772;2022-12-01T05:43:30;37.37;;;24.00;;
1837;SDS011;918;50.796;6.772;2022-12-01T05:45:56;38.67;;;23.97;;
1837;SDS011;918;50.796;6.772;2022-12-01T05:48:21;42.07;;;28.40;;
1837;SDS011;918;50.796;6.772;2022-12-01T05:50:46;42.07;;;27.03;;
1837;SDS011;918;50.796;6.772;2022-12-01T05:53:12;45.07;;;28.77;;
1837;SDS011;918;50.796;6.772;2022-12-01T05:55:38;41.30;;;28.70;;
1837;SDS011;918;50.796;6.772;2022-12-01T05:58:04;51.80;;;30.30;;
1837;SDS011;918;50.796;6.772;2022-12-01T06:00:29;44.93;;;27.90;;
1837;SDS011;918;50.796;6.772;2022-12-01T06:02:57;46.77;;;28.70;;
1837;SDS011;918;50.796;6.772;2022-12-01T06:05:26;41.43;;;26.80;;
1837;SDS011;918;50.796;6.772;2022-12-01T06:07:51;42.67;;;27.87;;
1837;SDS011;918;50.796;6.772;2022-12-01T06:10:17;46.07;;;28.53;;
1837;SDS011;918;50.796;6.772;2022-12-01T06:12:42;43.93;;;27.13;;
1837;SDS011;918;50.796;6.772;2022-12-01T06:15:07;47.63;;;29.20;;
1837;SDS011;918;50.796;6.772;2022-12-01T06:17:34;44.40;;;27.60;;
1837;SDS011;918;50.796;6.772;2022-12-01T06:20:00;49.57;;;28.03;;
1837;SDS011;918;50.796;6.772;2022-12-01T06:22:25;43.10;;;27.07;;
1837;SDS011;918;50.796;6.772;2022-12-01T06:24:50;43.03;;;26.50;;
1837;SDS011;918;50.796;6.772;2022-12-01T06:27:15;44.97;;;28.03;;
1837;SDS011;918;50.796;6.772;2022-12-01T06:29:41;38.07;;;25.10;;
1837;SDS011;918;50.796;6.772;2022-12-01T06:32:06;44.53;;;27.00;;
1837;SDS011;918;50.796;6.772;2022-12-01T06:34:31;42.20;;;26.80;;
1837;SDS011;918;50.796;6.772;2022-12-01T06:36:56;40.83;;;26.63;;
1837;SDS011;918;50.796;6.772;2022-12-01T06:39:22;42.23;;;26.80;;
1837;SDS011;918;50.796;6.772;2022-12-01T06:41:47;38.73;;;26.20;;
1837;SDS011;918;50.796;6.772;2022-12-01T06:44:12;38.23;;;24.80;;
1837;SDS011;918;50.796;6.772;2022-12-01T06:46:38;41.23;;;25.27;;
1837;SDS011;918;50.796;6.772;2022-12-01T06:49:03;41.47;;;26.50;;
1837;SDS011;918;50.796;6.772;2022-12-01T06:51:28;40.63;;;24.90;;
1837;SDS011;918;50.796;6.772;2022-12-01T06:53:55;41.10;;;25.73;;
1837;SDS011;918;50.796;6.772;2022-12-01T06:56:20;35.60;;;25.27;;
1837;SDS011;918;50.796;6.772;2022-12-01T06:58:50;40.97;;;26.13;;
1837;SDS011;918;50.796;6.772;2022-12-01T07:01:16;38.30;;;24.27;;
1837;SDS011;918;50.796;6.772;2022-12-01T07:03:41;40.30;;;26.43;;
1837;SDS011;918;50.796;6.772;2022-12-01T07:06:07;42.30;;;25.20;;
1837;SDS011;918;50.796;6.772;2022-12-01T07:08:32;36.53;;;25.10;;
1837;SDS011;918;50.796;6.772;2022-12-01T07:10:58;33.93;;;24.67;;
1837;SDS011;918;50.796;6.772;2022-12-01T07:13:24;33.27;;;23.80;;
1837;SDS011;918;50.796;6.772;2022-12-01T07:15:49;34.73;;;23.80;;
1837;SDS011;918;50.796;6.772;2022-12-01T07:18:14;36.53;;;24.87;;
1837;SDS011;918;50.796;6.772;2022-12-01T07:20:39;34.90;;;24.07;;
1837;SDS011;918;50.796;6.772;2022-12-01T07:23:04;35.13;;;22.30;;
1837;SDS011;918;50.796;6.772;2022-12-01T07:25:30;33.20;;;23.80;;
1837;SDS011;918;50.796;6.772;2022-12-01T07:27:55;30.67;;;23.03;;
1837;SDS011;918;50.796;6.772;2022-12-01T07:30:20;36.23;;;22.90;;
1837;SDS011;918;50.796;6.772;2022-12-01T07:32:45;29.50;;;21.73;;
1837;SDS011;918;50.796;6.772;2022-12-01T07:35:11;32.67;;;22.93;;
1837;SDS011;918;50.796;6.772;2022-12-01T07:37:36;37.70;;;23.80;;
1837;SDS011;918;50.796;6.772;2022-12-01T07:40:02;29.70;;;23.17;;
1837;SDS011;918;50.796;6.772;2022-12-01T07:42:27;32.77;;;21.40;;
1837;SDS011;918;50.796;6.772;2022-12-01T07:44:52;32.17;;;20.67;;
1837;SDS011;918;50.796;6.772;2022-12-01T07:47:18;30.60;;;19.70;;
1837;SDS011;918;50.796;6.772;2022-12-01T07:49:43;28.87;;;19.90;;
1837;SDS011;918;50.796;6.772;2022-12-01T07:52:08;30.67;;;20.33;;
1837;SDS011;918;50.796;6.772;2022-12-01T07:54:33;32.97;;;20.57;;
1837;SDS011;918;50.796;6.772;2022-12-01T07:56:59;31.87;;;21.10;;
1837;SDS011;918;50.796;6.772;2022-12-01T07:59:24;27.77;;;20.93;;
1837;SDS011;918;50.796;6.772;2022-12-01T08:01:52;29.63;;;20.83;;
1837;SDS011;918;50.796;6.772;2022-12-01T08:04:17;28.57;;;19.07;;
1837;SDS011;918;50.796;6.772;2022-12-01T08:06:42;26.90;;;19.77;;
1837;SDS011;918;50.796;6.772;2022-12-01T08:09:08;27.23;;;19.37;;
1837;SDS011;918;50.796;6.772;2022-12-01T08:11:33;29.83;;;20.03;;
1837;SDS011;918;50.796;6.772;2022-12-01T08:13:59;27.37;;;21.70;;
1837;SDS011;918;50.796;6.772;2022-12-01T08:16:25;25.80;;;19.97;;
1837;SDS011;918;50.796;6.772;2022-12-01T08:18:50;25.83;;;19.10;;
1837;SDS011;918;50.796;6.772;2022-12-01T08:21:17;25.30;;;21.07;;
1837;SDS011;918;50.796;6.772;2022-12-01T08:23:43;26.07;;;19.37;;
1837;SDS011;918;50.796;6.772;2022-12-01T08:26:12;28.20;;;20.03;;
1837;SDS011;918;50.796;6.772;2022-12-01T08:28:39;25.40;;;20.67;;
1837;SDS011;918;50.796;6.772;2022-12-01T08:31:05;27.33;;;21.67;;
1837;SDS011;918;50.796;6.772;2022-12-01T08:33:38;30.70;;;20.00;;
1837;SDS011;918;50.796;6.772;2022-12-01T08:36:03;26.77;;;19.57;;
1837;SDS011;918;50.796;6.772;2022-12-01T08:38:29;23.93;;;19.70;;
1837;SDS011;918;50.796;6.772;2022-12-01T08:40:58;25.20;;;20.17;;
1837;SDS011;918;50.796;6.772;2022-12-01T08:43:24;26.87;;;19.17;;
1837;SDS011;918;50.796;6.772;2022-12-01T08:45:49;19.90;;;17.20;;
1837;SDS011;918;50.796;6.772;2022-12-01T08:48:14;21.57;;;17.97;;
1837;SDS011;918;50.796;6.772;2022-12-01T08:50:39;27.87;;;19.00;;
1837;SDS011;918;50.796;6.772;2022-12-01T08:53:05;23.60;;;19.90;;
1837;SDS011;918;50.796;6.772;2022-12-01T08:55:30;24.63;;;18.77;;
1837;SDS011;918;50.796;6.772;2022-12-01T08:57:55;23.10;;;19.23;;
1837;SDS011;918;50.796;6.772;2022-12-01T09:00:21;23.07;;;18.60;;
1837;SDS011;918;50.796;6.772;2022-12-01T09:02:46;25.90;;;20.30;;
1837;SDS011;918;50.796;6.772;2022-12-01T09:05:11;25.73;;;19.03;;
1837;SDS011;918;50.796;6.772;2022-12-01T09:07:37;26.43;;;19.40;;
1837;SDS011;918;50.796;6.772;2022-12-01T09:10:02;26.27;;;21.23;;
1837;SDS011;918;50.796;6.772;2022-12-01T09:12:28;31.57;;;22.57;;
1837;SDS011;918;50.796;6.772;2022-12-01T09:14:53;29.53;;;21.47;;
1837;SDS011;918;50.796;6.772;2022-12-01T09:17:19;30.67;;;22.60;;
1837;SDS011;918;50.796;6.772;2022-12-01T09:19:44;23.90;;;20.37;;
1837;SDS011;918;50.796;6.772;2022-12-01T09:22:10;34.80;;;21.27;;
1837;SDS011;918;50.796;6.772;2022-12-01T09:24:35;34.83;;;24.57;;
1837;SDS011;918;50.796;6.772;2022-12-01T09:27:01;27.90;;;22.50;;
1837;SDS011;918;50.796;6.772;2022-12-01T09:29:27;33.27;;;23.17;;
1837;SDS011;918;50.796;6.772;2022-12-01T09:31:55;36.63;;;24.37;;
1837;SDS011;918;50.796;6.772;2022-12-01T09:34:21;32.30;;;24.60;;
1837;SDS011;918;50.796;6.772;2022-12-01T09:36:46;30.70;;;23.13;;
1837;SDS011;918;50.796;6.772;2022-12-01T09:39:16;31.00;;;23.63;;
1837;SDS011;918;50.796;6.772;2022-12-01T09:41:44;31.80;;;20.53;;
1837;SDS011;918;50.796;6.772;2022-12-01T09:44:27;32.67;;;22.60;;
1837;SDS011;918;50.796;6.772;2022-12-01T09:46:56;33.00;;;21.90;;
1837;SDS011;918;50.796;6.772;2022-12-01T09:49:27;28.03;;;20.77;;
1837;SDS011;918;50.796;6.772;2022-12-01T09:52:00;38.20;;;22.27;;
1837;SDS011;918;50.796;6.772;2022-12-01T09:54:25;28.93;;;21.10;;
1837;SDS011;918;50.796;6.772;2022-12-01T09:56:52;27.73;;;21.30;;
1837;SDS011;918;50.796;6.772;2022-12-01T09:59:20;30.30;;;20.40;;
1837;SDS011;918;50.796;6.772;2022-12-01T10:01:48;31.30;;;21.87;;
1837;SDS011;918;50.796;6.772;2022-12-01T10:04:19;29.40;;;21.97;;
1837;SDS011;918;50.796;6.772;2022-12-01T10:06:50;26.67;;;20.40;;
1837;SDS011;918;50.796;6.772;2022-12-01T10:09:20;26.93;;;20.90;;
1837;SDS011;918;50.796;6.772;2022-12-01T10:11:50;27.63;;;20.27;;
1837;SDS011;918;50.796;6.772;2022-12-01T10:14:17;28.67;;;21.50;;
1837;SDS011;918;50.796;6.772;2022-12-01T10:16:45;26.20;;;19.57;;
1837;SDS011;918;50.796;6.772;2022-12-01T10:19:19;27.50;;;19.57;;
1837;SDS011;918;50.796;6.772;2022-12-01T10:21:53;26.10;;;19.13;;
1837;SDS011;918;50.796;6.772;2022-12-01T10:30:06;26.40;;;18.47;;
1837;SDS011;918;50.796;6.772;2022-12-01T10:32:44;25.47;;;18.87;;
1837;SDS011;918;50.796;6.772;2022-12-01T10:35:16;25.70;;;18.93;;
1837;SDS011;918;50.796;6.772;2022-12-01T10:37:42;22.87;;;18.90;;
1837;SDS011;918;50.796;6.772;2022-12-01T10:40:15;25.87;;;20.23;;
1837;SDS011;918;50.796;6.772;2022-12-01T10:45:23;26.40;;;18.10;;
1837;SDS011;918;50.796;6.772;2022-12-01T10:50:37;24.17;;;17.33;;
1837;SDS011;918;50.796;6.772;2022-12-01T10:53:02;25.27;;;20.10;;
1837;SDS011;918;50.796;6.772;2022-12-01T10:55:31;23.03;;;17.57;;
1837;SDS011;918;50.796;6.772;2022-12-01T10:57:59;21.40;;;17.07;;
1837;SDS011;918;50.796;6.772;2022-12-01T11:00:33;25.07;;;17.87;;
1837;SDS011;918;50.796;6.772;2022-12-01T11:03:01;22.63;;;16.57;;
1837;SDS011;918;50.796;6.772;2022-12-01T11:05:29;20.00;;;16.07;;
1837;SDS011;918;50.796;6.772;2022-12-01T11:07:57;27.37;;;17.23;;
1837;SDS011;918;50.796;6.772;2022-12-01T11:10:29;21.37;;;16.60;;
1837;SDS011;918;50.796;6.772;2022-12-01T11:15:22;21.43;;;15.20;;
1837;SDS011;918;50.796;6.772;2022-12-01T11:18:01;28.17;;;17.27;;
1837;SDS011;918;50.796;6.772;2022-12-01T11:20:34;22.80;;;15.63;;
1837;SDS011;918;50.796;6.772;2022-12-01T11:25:41;18.30;;;15.67;;
1837;SDS011;918;50.796;6.772;2022-12-01T11:28:22;19.63;;;15.27;;
1837;SDS011;918;50.796;6.772;2022-12-01T11:30:47;22.03;;;16.20;;
1837;SDS011;918;50.796;6.772;2022-12-01T11:33:19;20.03;;;15.63;;
1837;SDS011;918;50.796;6.772;2022-12-01T11:35:45;20.20;;;16.67;;
1837;SDS011;918;50.796;6.772;2022-12-01T11:38:18;21.63;;;16.50;;
1837;SDS011;918;50.796;6.772;2022-12-01T11:40:49;22.50;;;16.17;;
1837;SDS011;918;50.796;6.772;2022-12-01T11:43:19;20.70;;;17.27;;
1837;SDS011;918;50.796;6.772;2022-12-01T11:45:48;20.37;;;17.70;;
1837;SDS011;918;50.796;6.772;2022-12-01T11:48:24;23.03;;;17.30;;
1837;SDS011;918;50.796;6.772;2022-12-01T11:53:26;18.53;;;14.73;;
1837;SDS011;918;50.796;6.772;2022-12-01T11:56:12;17.77;;;15.30;;
1837;SDS011;918;50.796;6.772;2022-12-01T11:58:38;21.23;;;15.83;;
1837;SDS011;918;50.796;6.772;2022-12-01T12:01:05;21.07;;;15.80;;
1837;SDS011;918;50.796;6.772;2022-12-01T12:03:50;19.73;;;16.63;;
1837;SDS011;918;50.796;6.772;2022-12-01T12:06:21;21.53;;;16.57;;
1837;SDS011;918;50.796;6.772;2022-12-01T12:09:02;22.33;;;16.63;;
1837;SDS011;918;50.796;6.772;2022-12-01T12:11:53;18.70;;;16.60;;
1837;SDS011;918;50.796;6.772;2022-12-01T12:20:04;18.63;;;16.50;;
1837;SDS011;918;50.796;6.772;2022-12-01T12:28:22;21.17;;;16.17;;
1837;SDS011;918;50.796;6.772;2022-12-01T12:36:00;19.50;;;14.30;;
1837;SDS011;918;50.796;6.772;2022-12-01T12:41:38;16.17;;;14.57;;
1837;SDS011;918;50.796;6.772;2022-12-01T12:47:09;19.80;;;14.83;;
1837;SDS011;918;50.796;6.772;2022-12-01T12:52:24;19.43;;;15.10;;
1837;SDS011;918;50.796;6.772;2022-12-01T12:54:56;19.07;;;15.53;;
1837;SDS011;918;50.796;6.772;2022-12-01T12:57:26;18.50;;;15.43;;
1837;SDS011;918;50.796;6.772;2022-12-01T13:00:04;15.47;;;13.83;;
1837;SDS011;918;50.796;6.772;2022-12-01T13:02:45;20.20;;;15.27;;
1837;SDS011;918;50.796;6.772;2022-12-01T13:05:19;21.17;;;16.13;;
1837;SDS011;918;50.796;6.772;2022-12-01T13:07:55;21.00;;;15.73;;
1837;SDS011;918;50.796;6.772;2022-12-01T13:10:36;19.03;;;14.90;;
1837;SDS011;918;50.796;6.772;2022-12-01T13:15:39;22.07;;;16.77;;
1837;SDS011;918;50.796;6.772;2022-12-01T13:18:25;20.70;;;16.40;;
1837;SDS011;918;50.796;6.772;2022-12-01T13:20:56;21.70;;;16.37;;
1837;SDS011;918;50.796;6.772;2022-12-01T13:23:21;25.40;;;18.37;;
1837;SDS011;918;50.796;6.772;2022-12-01T13:25:49;24.07;;;18.23;;
1837;SDS011;918;50.796;6.772;2022-12-01T13:28:21;22.70;;;18.57;;
1837;SDS011;918;50.796;6.772;2022-12-01T13:30:58;23.53;;;18.30;;
1837;SDS011;918;50.796;6.772;2022-12-01T13:33:25;27.40;;;20.20;;
1837;SDS011;918;50.796;6.772;2022-12-01T13:35:51;24.43;;;18.90;;
1837;SDS011;918;50.796;6.772;2022-12-01T13:38:18;24.27;;;19.03;;
1837;SDS011;918;50.796;6.772;2022-12-01T13:40:45;23.73;;;18.00;;
1837;SDS011;918;50.796;6.772;2022-12-01T13:43:21;28.73;;;20.70;;
1837;SDS011;918;50.796;6.772;2022-12-01T13:45:47;31.80;;;21.70;;
1837;SDS011;918;50.796;6.772;2022-12-01T13:48:48;31.70;;;23.40;;
1837;SDS011;918;50.796;6.772;2022-12-01T13:51:16;24.80;;;20.43;;
1837;SDS011;918;50.796;6.772;2022-12-01T13:56:46;25.57;;;19.57;;
1837;SDS011;918;50.796;6.772;2022-12-01T13:59:43;29.23;;;23.15;;
1837;SDS011;918;50.796;6.772;2022-12-01T14:02:22;28.00;;;23.27;;
1837;SDS011;918;50.796;6.772;2022-12-01T14:04:47;34.30;;;22.60;;
1837;SDS011;918;50.796;6.772;2022-12-01T14:07:14;30.57;;;21.93;;
1837;SDS011;918;50.796;6.772;2022-12-01T14:09:50;32.23;;;22.17;;
1837;SDS011;918;50.796;6.772;2022-12-01T14:12:21;27.97;;;22.53;;
1837;SDS011;918;50.796;6.772;2022-12-01T14:14:53;32.67;;;21.57;;
1837;SDS011;918;50.796;6.772;2022-12-01T14:17:24;33.13;;;22.13;;
1837;SDS011;918;50.796;6.772;2022-12-01T14:19:51;27.07;;;22.30;;
1837;SDS011;918;50.796;6.772;2022-12-01T14:23:01;24.70;;;19.00;;
1837;SDS011;918;50.796;6.772;2022-12-01T14:27:44;23.70;;;18.97;;
1837;SDS011;918;50.796;6.772;2022-12-01T14:38:47;28.90;;;20.63;;
1837;SDS011;918;50.796;6.772;2022-12-01T14:41:16;26.17;;;20.17;;
1837;SDS011;918;50.796;6.772;2022-12-01T14:43:46;23.53;;;19.33;;
1837;SDS011;918;50.796;6.772;2022-12-01T14:46:28;26.20;;;20.30;;
1837;SDS011;918;50.796;6.772;2022-12-01T14:49:16;25.67;;;19.20;;
1837;SDS011;918;50.796;6.772;2022-12-01T14:51:46;25.03;;;20.50;;
1837;SDS011;918;50.796;6.772;2022-12-01T14:54:17;29.17;;;20.93;;
1837;SDS011;918;50.796;6.772;2022-12-01T14:56:46;28.17;;;20.73;;
1837;SDS011;918;50.796;6.772;2022-12-01T14:59:20;29.00;;;21.20;;
1837;SDS011;918;50.796;6.772;2022-12-01T15:01:48;30.53;;;20.30;;
1837;SDS011;918;50.796;6.772;2022-12-01T15:04:15;30.70;;;21.53;;
1837;SDS011;918;50.796;6.772;2022-12-01T15:06:40;26.77;;;20.93;;
1837;SDS011;918;50.796;6.772;2022-12-01T15:09:16;30.70;;;22.40;;
1837;SDS011;918;50.796;6.772;2022-12-01T15:11:50;29.83;;;21.53;;
1837;SDS011;918;50.796;6.772;2022-12-01T15:14:34;27.83;;;22.20;;
1837;SDS011;918;50.796;6.772;2022-12-01T15:17:27;33.77;;;23.70;;
1837;SDS011;918;50.796;6.772;2022-12-01T15:19:56;28.90;;;20.47;;
1837;SDS011;918;50.796;6.772;2022-12-01T15:22:23;28.93;;;21.70;;
1837;SDS011;918;50.796;6.772;2022-12-01T15:24:52;26.63;;;22.13;;
1837;SDS011;918;50.796;6.772;2022-12-01T15:27:25;31.37;;;22.23;;
1837;SDS011;918;50.796;6.772;2022-12-01T15:29:52;32.17;;;23.93;;
1837;SDS011;918;50.796;6.772;2022-12-01T15:32:18;29.50;;;23.60;;
1837;SDS011;918;50.796;6.772;2022-12-01T15:34:44;34.40;;;24.87;;
1837;SDS011;918;50.796;6.772;2022-12-01T15:37:14;31.60;;;23.77;;
1837;SDS011;918;50.796;6.772;2022-12-01T15:39:42;31.57;;;23.70;;
1837;SDS011;918;50.796;6.772;2022-12-01T15:42:29;32.57;;;22.97;;
1837;SDS011;918;50.796;6.772;2022-12-01T15:44:57;31.57;;;25.10;;
1837;SDS011;918;50.796;6.772;2022-12-01T15:47:33;31.73;;;23.83;;
1837;SDS011;918;50.796;6.772;2022-12-01T15:50:04;33.53;;;24.77;;
1837;SDS011;918;50.796;6.772;2022-12-01T15:52:30;35.50;;;26.63;;
1837;SDS011;918;50.796;6.772;2022-12-01T15:54:58;30.00;;;23.90;;
1837;SDS011;918;50.796;6.772;2022-12-01T15:57:27;30.13;;;23.20;;
1837;SDS011;918;50.796;6.772;2022-12-01T15:59:53;34.77;;;26.60;;
1837;SDS011;918;50.796;6.772;2022-12-01T16:04:46;33.00;;;25.37;;
1837;SDS011;918;50.796;6.772;2022-12-01T16:07:12;33.90;;;27.13;;
1837;SDS011;918;50.796;6.772;2022-12-01T16:09:39;32.60;;;24.70;;
1837;SDS011;918;50.796;6.772;2022-12-01T16:14:50;34.10;;;26.43;;
1837;SDS011;918;50.796;6.772;2022-12-01T16:17:18;34.03;;;26.07;;
1837;SDS011;918;50.796;6.772;2022-12-01T16:19:43;31.93;;;24.17;;
1837;SDS011;918;50.796;6.772;2022-12-01T16:24:36;27.20;;;22.80;;
1837;SDS011;918;50.796;6.772;2022-12-01T16:27:06;26.10;;;20.20;;
1837;SDS011;918;50.796;6.772;2022-12-01T16:29:53;27.17;;;20.43;;
1837;SDS011;918;50.796;6.772;2022-12-01T16:32:34;23.77;;;19.07;;
1837;SDS011;918;50.796;6.772;2022-12-01T16:35:02;25.20;;;19.27;;
1837;SDS011;918;50.796;6.772;2022-12-01T16:37:28;23.90;;;19.93;;
1837;SDS011;918;50.796;6.772;2022-12-01T16:39:53;21.17;;;17.40;;
1837;SDS011;918;50.796;6.772;2022-12-01T16:42:19;23.73;;;19.30;;
1837;SDS011;918;50.796;6.772;2022-12-01T16:44:48;22.37;;;17.00;;
1837;SDS011;918;50.796;6.772;2022-12-01T16:47:23;24.70;;;17.80;;
1837;SDS011;918;50.796;6.772;2022-12-01T16:49:49;21.87;;;17.67;;
1837;SDS011;918;50.796;6.772;2022-12-01T16:52:15;19.80;;;17.00;;
1837;SDS011;918;50.796;6.772;2022-12-01T16:54:41;22.23;;;17.23;;
1837;SDS011;918;50.796;6.772;2022-12-01T16:57:06;19.03;;;16.27;;
1837;SDS011;918;50.796;6.772;2022-12-01T16:59:31;22.93;;;17.63;;
1837;SDS011;918;50.796;6.772;2022-12-01T17:01:57;26.03;;;20.47;;
1837;SDS011;918;50.796;6.772;2022-12-01T17:04:24;27.30;;;19.73;;